createdAt,value
2022-09-03T00:00:25.562Z,54.57
2022-09-03T00:03:21.990Z,54.63
2022-09-03T00:06:17.596Z,54.55
2022-09-03T00:09:14.134Z,54.57
2022-09-03T00:12:11.627Z,54.59
2022-09-03T00:15:06.707Z,54.69
2022-09-03T00:18:00.064Z,54.70
2022-09-03T00:20:55.363Z,54.77
2022-09-03T00:23:49.023Z,54.71
2022-09-03T00:26:43.443Z,54.82
2022-09-03T00:29:37.797Z,54.85
2022-09-03T00:32:36.231Z,54.84
2022-09-03T00:35:31.994Z,54.95
2022-09-03T00:38:23.725Z,54.96
2022-09-03T00:41:31.725Z,55.03
2022-09-03T00:44:40.048Z,55.03
2022-09-03T00:47:38.709Z,55.05
2022-09-03T00:50:42.604Z,55.05
2022-09-03T00:53:40.369Z,55.01
2022-09-03T00:56:38.152Z,55.02
2022-09-03T00:59:38.623Z,55.08
2022-09-03T01:02:38.324Z,55.10
2022-09-03T01:05:43.604Z,54.98
2022-09-03T01:08:50.965Z,54.98
2022-09-03T01:11:51.856Z,54.85
2022-09-03T01:14:52.445Z,54.98
2022-09-03T01:17:52.950Z,54.99
2022-09-03T01:20:53.489Z,54.96
2022-09-03T01:24:07.501Z,55.02
2022-09-03T01:27:16.519Z,55.08
2022-09-03T01:30:09.325Z,55.10
2022-09-03T01:33:06.307Z,55.17
2022-09-03T01:36:05.614Z,55.05
2022-09-03T01:39:01.238Z,55.02
2022-09-03T01:42:20.917Z,55.11
2022-09-03T01:45:29.269Z,55.13
2022-09-03T01:48:35.060Z,55.23
2022-09-03T01:51:26.896Z,55.12
2022-09-03T01:54:38.221Z,55.26
2022-09-03T01:57:42.062Z,55.19
2022-09-03T02:00:35.601Z,55.27
2022-09-03T02:03:33.876Z,55.22
2022-09-03T02:06:23.606Z,55.33
2022-09-03T02:09:14.257Z,55.38
2022-09-03T02:12:09.335Z,55.41
2022-09-03T02:14:59.329Z,55.41
2022-09-03T02:17:53.008Z,55.52
2022-09-03T02:20:43.129Z,55.56
2022-09-03T02:23:33.305Z,55.48
2022-09-03T02:26:25.671Z,55.47
2022-09-03T02:29:17.357Z,55.46
2022-09-03T02:32:08.149Z,55.44
2022-09-03T02:34:58.103Z,55.56
2022-09-03T02:37:48.099Z,55.54
2022-09-03T02:40:38.091Z,55.60
2022-09-03T02:43:33.245Z,55.78
2022-09-03T02:46:27.812Z,55.84
2022-09-03T02:49:18.104Z,55.83
2022-09-03T02:52:11.921Z,55.96
2022-09-03T02:55:01.851Z,55.90
2022-09-03T02:57:51.775Z,55.99
2022-09-03T03:00:42.338Z,56.12
2022-09-03T03:03:32.920Z,56.14
2022-09-03T03:06:23.292Z,56.14
2022-09-03T03:09:13.292Z,56.24
2022-09-03T03:12:03.161Z,56.30
2022-09-03T03:14:53.164Z,56.25
2022-09-03T03:17:42.915Z,56.36
2022-09-03T03:20:32.753Z,56.41
2022-09-03T03:23:22.932Z,56.52
2022-09-03T03:26:15.222Z,56.44
2022-09-03T03:29:05.855Z,56.60
2022-09-03T03:31:55.455Z,56.55
2022-09-03T03:34:45.165Z,56.50
2022-09-03T03:37:36.269Z,56.40
2022-09-03T03:40:26.709Z,56.39
2022-09-03T03:43:16.722Z,56.28
2022-09-03T03:46:07.092Z,56.18
2022-09-03T03:48:56.530Z,56.15
2022-09-03T03:51:46.235Z,56.07
2022-09-03T03:54:36.153Z,56.05
2022-09-03T03:57:26.212Z,55.92
2022-09-03T04:00:18.953Z,55.94
2022-09-03T04:03:08.839Z,55.90
2022-09-03T04:06:02.832Z,55.80
2022-09-03T04:08:52.977Z,55.87
2022-09-03T04:11:43.052Z,56.03
2022-09-03T04:14:32.966Z,55.94
2022-09-03T04:17:25.375Z,55.94
2022-09-03T04:20:16.169Z,56.09
2022-09-03T04:23:07.184Z,56.12
2022-09-03T04:25:57.265Z,56.01
2022-09-03T04:28:47.558Z,55.89
2022-09-03T04:31:39.114Z,55.73
2022-09-03T04:34:30.114Z,55.58
2022-09-03T04:37:20.931Z,55.45
2022-09-03T04:40:12.590Z,55.38
2022-09-03T04:43:04.964Z,55.19
2022-09-03T04:45:56.854Z,55.06
2022-09-03T04:48:49.213Z,55.08
2022-09-03T04:51:39.204Z,54.93
2022-09-03T04:54:29.895Z,54.92
2022-09-03T04:57:20.069Z,54.92
2022-09-03T05:00:12.548Z,54.86
2022-09-03T05:03:05.367Z,54.88
2022-09-03T05:05:59.440Z,54.99
2022-09-03T05:08:51.242Z,55.00
2022-09-03T05:11:41.093Z,55.04
2022-09-03T05:14:30.646Z,54.99
2022-09-03T05:17:20.716Z,55.03
2022-09-03T05:20:12.168Z,54.46
2022-09-03T05:23:04.854Z,54.02
2022-09-03T05:26:00.100Z,53.58
2022-09-03T05:28:53.785Z,53.44
2022-09-03T05:31:44.012Z,53.36
2022-09-03T05:34:34.093Z,53.12
2022-09-03T05:37:24.289Z,53.01
2022-09-03T05:40:15.032Z,52.96
2022-09-03T05:43:08.520Z,52.94
2022-09-03T05:46:02.583Z,52.99
2022-09-03T05:48:52.532Z,52.85
2022-09-03T05:51:43.692Z,52.70
2022-09-03T05:54:33.509Z,52.73
2022-09-03T05:57:23.838Z,52.65
2022-09-03T06:00:15.715Z,52.64
2022-09-03T06:03:05.932Z,52.60
2022-09-03T06:05:57.594Z,52.47
2022-09-03T06:08:51.712Z,52.56
2022-09-03T06:11:42.864Z,52.60
2022-09-03T06:14:33.301Z,52.77
2022-09-03T06:17:23.022Z,52.90
2022-09-03T06:20:13.946Z,52.95
2022-09-03T06:23:04.182Z,53.00
2022-09-03T06:26:05.600Z,52.98
2022-09-03T06:28:56.357Z,53.07
2022-09-03T06:31:46.908Z,53.00
2022-09-03T06:34:36.866Z,52.95
2022-09-03T06:37:26.996Z,53.04
2022-09-03T06:40:22.609Z,53.15
2022-09-03T06:43:12.561Z,53.19
2022-09-03T06:46:04.831Z,53.18
2022-09-03T06:48:55.795Z,53.20
2022-09-03T06:51:45.896Z,53.11
2022-09-03T06:54:35.679Z,53.17
2022-09-03T06:57:25.622Z,53.24
2022-09-03T07:00:17.754Z,53.24
2022-09-03T07:03:08.170Z,52.90
2022-09-03T07:06:03.637Z,52.79
2022-09-03T07:08:54.599Z,52.79
2022-09-03T07:11:48.825Z,52.78
2022-09-03T07:14:38.773Z,52.67
2022-09-03T07:17:28.320Z,52.14
2022-09-03T07:20:18.138Z,51.99
2022-09-03T07:23:08.247Z,52.13
2022-09-03T07:26:00.483Z,52.22
2022-09-03T07:28:51.324Z,52.33
2022-09-03T07:31:43.684Z,52.63
2022-09-03T07:34:35.783Z,52.57
2022-09-03T07:37:27.421Z,52.58
2022-09-03T07:40:20.436Z,52.79
2022-09-03T07:43:10.606Z,52.57
2022-09-03T07:46:01.280Z,52.38
2022-09-03T07:48:52.176Z,52.58
2022-09-03T07:51:42.131Z,52.70
2022-09-03T07:54:32.468Z,52.68
2022-09-03T07:57:22.914Z,52.75
2022-09-03T08:00:17.806Z,52.71
2022-09-03T08:03:08.945Z,52.66
2022-09-03T08:06:04.330Z,52.44
2022-09-03T08:09:04.627Z,52.22
2022-09-03T08:11:55.508Z,51.86
2022-09-03T08:14:45.207Z,51.63
2022-09-03T08:17:35.126Z,51.19
2022-09-03T08:20:26.701Z,50.84
2022-09-03T08:23:17.042Z,50.69
2022-09-03T08:26:07.746Z,51.00
2022-09-03T08:28:57.812Z,51.10
2022-09-03T08:31:47.722Z,51.03
2022-09-03T08:34:38.356Z,51.08
2022-09-03T08:37:29.608Z,50.95
2022-09-03T08:40:19.537Z,51.07
2022-09-03T08:43:17.476Z,51.16
2022-09-03T08:46:07.845Z,51.09
2022-09-03T08:48:59.012Z,50.95
2022-09-03T08:51:51.687Z,50.91
2022-09-03T08:54:42.435Z,50.92
2022-09-03T08:57:41.693Z,50.74
2022-09-03T09:00:43.292Z,50.57
2022-09-03T09:03:43.715Z,50.21
2022-09-03T09:06:42.191Z,50.27
2022-09-03T09:09:40.969Z,50.38
2022-09-03T09:12:47.191Z,49.98
2022-09-03T09:15:48.132Z,49.90
2022-09-03T09:18:54.427Z,49.76
2022-09-03T09:21:49.164Z,49.98
2022-09-03T09:24:43.306Z,49.60
2022-09-03T09:27:33.824Z,49.29
2022-09-03T09:30:24.235Z,49.31
2022-09-03T09:33:15.133Z,49.47
2022-09-03T09:36:08.676Z,49.27
2022-09-03T09:39:09.306Z,48.91
2022-09-03T09:42:09.595Z,48.50
2022-09-03T09:45:09.830Z,48.20
2022-09-03T09:47:59.603Z,47.46
2022-09-03T09:50:49.328Z,47.41
2022-09-03T09:53:39.822Z,47.26
2022-09-03T09:56:30.131Z,47.22
2022-09-03T09:59:22.180Z,47.05
2022-09-03T10:02:22.147Z,46.75
2022-09-03T10:05:25.024Z,46.67
2022-09-03T10:08:25.954Z,46.76
2022-09-03T10:11:21.463Z,46.69
2022-09-03T10:14:20.392Z,46.91
2022-09-03T10:17:19.841Z,46.54
2022-09-03T10:20:30.795Z,46.47
2022-09-03T10:23:24.990Z,46.39
2022-09-03T10:26:18.858Z,46.29
2022-09-03T10:29:10.164Z,46.15
2022-09-03T10:32:11.746Z,46.19
2022-09-03T10:35:10.622Z,46.58
2022-09-03T10:38:12.045Z,46.75
2022-09-03T10:41:13.887Z,46.59
2022-09-03T10:44:27.124Z,46.96
2022-09-03T10:47:42.086Z,47.43
2022-09-03T10:50:35.474Z,47.50
2022-09-03T10:53:40.917Z,47.43
2022-09-03T10:56:39.885Z,47.56
2022-09-03T10:59:45.568Z,47.78
2022-09-03T11:02:54.001Z,47.73
2022-09-03T11:05:50.391Z,48.06
2022-09-03T11:08:44.217Z,48.11
2022-09-03T11:11:39.412Z,48.32
2022-09-03T11:14:38.089Z,48.52
2022-09-03T11:17:32.228Z,48.56
2022-09-03T11:20:25.158Z,48.77
2022-09-03T11:23:17.572Z,49.06
2022-09-03T11:26:13.551Z,49.36
2022-09-03T11:29:10.501Z,49.26
2022-09-03T11:32:03.742Z,49.60
2022-09-03T11:34:55.129Z,49.49
2022-09-03T11:37:55.154Z,49.72
2022-09-03T11:41:02.465Z,49.67
2022-09-03T11:43:53.304Z,49.44
2022-09-03T11:46:54.510Z,49.16
2022-09-03T11:49:50.839Z,49.13
2022-09-03T11:52:40.811Z,48.89
2022-09-03T11:55:43.323Z,49.02
2022-09-03T11:58:36.233Z,49.03
2022-09-03T12:01:28.637Z,49.14
2022-09-03T12:04:22.031Z,49.42
2022-09-03T12:07:50.916Z,49.68
2022-09-03T12:10:53.386Z,49.95
2022-09-03T12:13:53.056Z,49.88
2022-09-03T12:17:03.626Z,49.97
2022-09-03T12:19:56.396Z,49.95
2022-09-03T12:22:46.555Z,50.18
2022-09-03T12:25:36.335Z,50.45
2022-09-03T12:28:31.050Z,50.51
2022-09-03T12:31:22.997Z,50.94
2022-09-03T12:34:17.382Z,51.31
2022-09-03T12:40:34.714Z,52.57
2022-09-03T12:43:49.838Z,52.67
2022-09-03T12:46:40.429Z,52.85
2022-09-03T12:49:35.139Z,52.90
2022-09-03T12:52:30.868Z,52.78
2022-09-03T12:55:36.952Z,52.63
2022-09-03T12:58:35.616Z,52.56
2022-09-03T13:01:29.239Z,52.65
2022-09-03T13:04:26.807Z,52.79
2022-09-03T13:07:25.024Z,52.88
2022-09-03T13:10:25.117Z,53.31
2022-09-03T13:13:25.517Z,54.36
2022-09-03T13:16:54.234Z,54.48
2022-09-03T13:19:56.836Z,54.40
2022-09-03T13:23:00.100Z,54.43
2022-09-03T13:26:05.992Z,54.56
2022-09-03T13:29:18.733Z,54.66
2022-09-03T13:32:19.703Z,54.53
2022-09-03T13:35:19.662Z,54.36
2022-09-03T13:38:27.276Z,54.77
2022-09-03T13:41:26.467Z,54.85
2022-09-03T13:44:32.592Z,54.80
2022-09-03T13:47:32.463Z,54.93
2022-09-03T13:50:27.338Z,55.43
2022-09-03T13:53:26.518Z,55.72
2022-09-03T13:56:36.168Z,56.15
2022-09-03T13:59:35.500Z,56.46
2022-09-03T14:02:35.406Z,56.34
2022-09-03T14:05:40.974Z,56.55
2022-09-03T14:08:35.719Z,56.82
2022-09-03T14:11:36.719Z,56.61
2022-09-03T14:14:42.871Z,57.22
2022-09-03T14:17:43.118Z,57.54
2022-09-03T14:20:38.493Z,57.39
2022-09-03T14:23:37.863Z,57.32
2022-09-03T14:26:39.007Z,57.80
2022-09-03T14:29:32.719Z,57.75
2022-09-03T14:32:32.177Z,58.18
2022-09-03T14:35:58.215Z,58.59
2022-09-03T14:39:04.158Z,60.58
2022-09-03T14:42:24.955Z,60.72
2022-09-03T14:45:44.704Z,61.08
2022-09-03T14:49:07.500Z,61.65
2022-09-03T14:52:21.025Z,61.95
2022-09-03T14:55:34.713Z,61.32
2022-09-03T14:58:42.103Z,62.20
2022-09-03T15:01:39.041Z,62.29
2022-09-03T15:04:53.059Z,62.03
2022-09-03T15:07:50.905Z,62.06
2022-09-03T15:10:47.634Z,61.44
2022-09-03T15:13:44.012Z,61.38
2022-09-03T15:16:50.456Z,61.19
2022-09-03T15:19:59.173Z,60.99
2022-09-03T15:23:12.050Z,60.78
2022-09-03T15:26:20.241Z,60.63
2022-09-03T15:29:26.553Z,60.49
2022-09-03T15:32:27.833Z,59.98
2022-09-03T15:35:33.889Z,59.59
2022-09-03T15:38:36.805Z,59.27
2022-09-03T15:41:41.614Z,59.06
2022-09-03T15:44:43.709Z,59.19
2022-09-03T15:47:43.166Z,59.49
2022-09-03T15:50:54.925Z,59.63
2022-09-03T15:53:55.625Z,59.70
2022-09-03T15:56:56.755Z,59.54
2022-09-03T15:59:56.622Z,59.60
2022-09-03T16:02:52.396Z,59.52
2022-09-03T16:05:47.800Z,59.27
2022-09-03T16:08:45.328Z,59.01
2022-09-03T16:11:42.554Z,58.77
2022-09-03T16:14:37.206Z,58.52
2022-09-03T16:17:33.092Z,58.46
2022-09-03T16:20:27.249Z,58.59
2022-09-03T16:23:22.686Z,58.63
2022-09-03T16:26:19.803Z,58.75
2022-09-03T16:29:15.699Z,58.91
2022-09-03T16:32:19.525Z,58.79
2022-09-03T16:35:23.707Z,58.68
2022-09-03T16:38:35.515Z,58.75
2022-09-03T16:41:30.782Z,58.88
2022-09-03T16:44:25.191Z,59.01
2022-09-03T16:47:25.894Z,58.97
2022-09-03T16:50:28.938Z,58.87
2022-09-03T16:53:29.279Z,58.82
2022-09-03T16:56:34.372Z,58.92
2022-09-03T16:59:48.580Z,59.00
2022-09-03T17:03:13.819Z,59.02
2022-09-03T17:06:46.189Z,59.00
2022-09-03T17:09:52.975Z,58.69
2022-09-03T17:12:58.074Z,58.46
2022-09-03T17:15:57.002Z,58.27
2022-09-03T17:18:55.269Z,58.36
2022-09-03T17:21:57.245Z,58.25
2022-09-03T17:24:52.871Z,58.26
2022-09-03T17:27:51.703Z,58.37
2022-09-03T17:30:49.899Z,58.21
2022-09-03T17:33:57.921Z,58.19
2022-09-03T17:37:06.816Z,58.03
2022-09-03T17:40:20.226Z,57.88
2022-09-03T17:43:19.899Z,57.78
2022-09-03T17:46:22.994Z,57.82
2022-09-03T17:49:23.117Z,57.94
2022-09-03T17:52:28.030Z,57.84
2022-09-03T17:55:25.767Z,57.58
2022-09-03T17:58:20.499Z,57.37
2022-09-03T18:01:18.283Z,57.42
2022-09-03T18:04:28.277Z,57.45
2022-09-03T18:07:27.758Z,57.46
2022-09-03T18:10:26.827Z,57.42
2022-09-03T18:13:24.246Z,57.58
2022-09-03T18:16:20.533Z,57.75
2022-09-03T18:19:19.097Z,57.84
2022-09-03T18:22:26.665Z,57.81
2022-09-03T18:25:36.241Z,57.78
2022-09-03T18:28:51.002Z,57.70
2022-09-03T18:31:58.708Z,57.78
2022-09-03T18:35:07.402Z,57.75
2022-09-03T18:38:15.191Z,57.86
2022-09-03T18:41:31.935Z,57.92
2022-09-03T18:44:54.721Z,57.96
2022-09-03T18:48:21.487Z,57.86
2022-09-03T18:51:36.984Z,57.77
2022-09-03T18:55:07.793Z,57.75
2022-09-03T18:58:27.405Z,57.92
2022-09-03T19:01:48.103Z,57.70
2022-09-03T19:05:10.051Z,57.35
2022-09-03T19:08:25.307Z,57.54
2022-09-03T19:11:46.332Z,57.07
2022-09-03T19:15:02.959Z,56.69
2022-09-03T19:18:26.737Z,56.61
2022-09-03T19:21:46.493Z,56.65
2022-09-03T19:24:53.748Z,56.81
2022-09-03T19:28:13.693Z,56.79
2022-09-03T19:31:57.570Z,56.67
2022-09-03T19:35:23.832Z,56.56
2022-09-03T19:38:40.670Z,56.73
2022-09-03T19:41:52.082Z,56.55
2022-09-03T19:45:10.441Z,56.56
2022-09-03T19:48:27.715Z,56.62
2022-09-03T19:51:39.717Z,56.45
2022-09-03T19:54:48.658Z,56.48
2022-09-03T19:57:56.150Z,56.47
2022-09-03T20:01:04.022Z,56.53
2022-09-03T20:04:11.396Z,56.49
2022-09-03T20:07:22.290Z,56.41
2022-09-03T20:10:25.177Z,56.39
2022-09-03T20:13:17.380Z,56.52
2022-09-03T20:16:14.081Z,56.51
2022-09-03T20:19:13.597Z,56.51
2022-09-03T20:22:16.878Z,56.58
2022-09-03T20:25:27.006Z,56.59
2022-09-03T20:28:33.681Z,56.63
2022-09-03T20:31:34.009Z,56.63
2022-09-03T20:34:42.609Z,56.79
2022-09-03T20:37:41.873Z,57.02
2022-09-03T20:40:43.391Z,57.05
2022-09-03T20:44:03.749Z,57.09
2022-09-03T20:47:06.196Z,57.14
2022-09-03T20:50:05.477Z,57.16
2022-09-03T20:53:10.459Z,57.18
2022-09-03T20:56:11.396Z,57.13
2022-09-03T20:59:09.435Z,57.11
2022-09-03T21:02:07.107Z,57.05
2022-09-03T21:05:10.843Z,57.00
2022-09-03T21:08:11.306Z,56.87
2022-09-03T21:11:07.309Z,56.91
2022-09-03T21:14:05.546Z,56.91
2022-09-03T21:17:05.941Z,57.04
2022-09-03T21:20:10.566Z,56.99
2022-09-03T21:23:13.478Z,56.98
2022-09-03T21:26:13.914Z,56.87
2022-09-03T21:29:17.351Z,56.95
2022-09-03T21:32:16.891Z,56.86
2022-09-03T21:35:17.292Z,56.83
2022-09-03T21:38:09.644Z,56.81
2022-09-03T21:41:06.792Z,56.79
2022-09-03T21:44:03.945Z,56.71
2022-09-03T21:46:59.681Z,56.91
2022-09-03T21:49:57.802Z,57.19
2022-09-03T21:52:53.663Z,57.39
2022-09-03T21:55:52.288Z,57.50
2022-09-03T21:58:58.337Z,57.75
2022-09-03T22:02:00.373Z,57.67
2022-09-03T22:04:50.833Z,57.85
2022-09-03T22:07:55.480Z,58.07
2022-09-03T22:10:58.150Z,58.26
2022-09-03T22:13:57.458Z,58.33
2022-09-03T22:16:52.928Z,58.46
2022-09-03T22:19:43.125Z,58.52
2022-09-03T22:22:40.932Z,58.50
2022-09-03T22:25:41.947Z,58.50
2022-09-03T22:28:36.913Z,58.79
2022-09-03T22:31:35.562Z,58.69
2022-09-03T22:34:39.112Z,58.90
2022-09-03T22:37:47.389Z,59.17
2022-09-03T22:40:46.865Z,59.12
2022-09-03T22:43:44.446Z,59.04
2022-09-03T22:46:41.420Z,59.28
2022-09-03T22:49:42.262Z,59.36
2022-09-03T22:52:40.550Z,59.41
2022-09-03T22:55:30.664Z,59.44
2022-09-03T22:58:24.633Z,59.48
2022-09-03T23:01:23.247Z,59.68
2022-09-03T23:04:29.327Z,59.83
2022-09-03T23:07:28.340Z,59.90
2022-09-03T23:10:25.767Z,59.95
2022-09-03T23:13:21.164Z,60.02
2022-09-03T23:16:18.371Z,60.28
2022-09-03T23:22:13.565Z,60.32
2022-09-03T23:25:09.858Z,60.33
2022-09-03T23:28:02.889Z,60.37
2022-09-03T23:30:52.904Z,60.37
2022-09-03T23:33:42.457Z,60.63
2022-09-03T23:40:26.250Z,60.70
2022-09-03T23:43:53.669Z,60.69
2022-09-03T23:46:54.981Z,60.70
2022-09-03T23:49:59.062Z,60.69
2022-09-03T23:53:07.227Z,60.84
2022-09-03T23:56:17.443Z,60.88
2022-09-03T23:59:16.317Z,60.93
